Time,TemperatureF,DewpointF,PressureIn,WindDirection,WindDirectionDegrees,WindSpeedMPH,WindSpeedGustMPH,Humidity,HourlyPrecipIn,Conditions,Clouds,dailyrainin,SolarRadiationWatts/m^2,SoftwareType,DateUTC
2013-02-10 00:12:00,36.0,29.0,30.11,ENE,70,3.0,4.0,77,0.00,,,0.00,0,weatherlink.com 1.10,2013-02-10 07:12:00,
2013-02-10 00:27:00,35.7,29.0,30.11,ENE,68,1.0,4.0,78,0.00,,,0.00,0,weatherlink.com 1.10,2013-02-10 07:27:00,
2013-02-10 00:42:00,35.8,29.0,30.11,ENE,68,0.0,2.0,77,0.00,,,0.00,0,weatherlink.com 1.10,2013-02-10 07:42:00,
2013-02-10 00:57:00,34.3,29.0,30.11,ENE,68,1.0,2.0,81,0.00,,,0.00,0,weatherlink.com 1.10,2013-02-10 07:57:00,
2013-02-10 01:12:00,33.9,29.0,30.12,ENE,68,1.0,1.0,82,0.00,,,0.00,0,weatherlink.com 1.10,2013-02-10 08:12:00,
2013-02-10 01:27:00,33.5,29.0,30.12,ENE,68,1.0,2.0,83,0.00,,,0.00,0,weatherlink.com 1.10,2013-02-10 08:27:00,
2013-02-10 01:42:00,34.2,29.0,30.12,ENE,68,2.0,3.0,81,0.00,,,0.00,0,weatherlink.com 1.10,2013-02-10 08:42:00,
2013-02-10 01:59:00,33.5,29.0,30.11,ENE,66,2.0,3.0,83,0.00,,,0.00,0,weatherlink.com 1.10,2013-02-10 08:59:00,
2013-02-10 02:12:00,33.6,29.0,30.11,ENE,65,1.0,2.0,82,0.00,,,0.00,0,weatherlink.com 1.10,2013-02-10 09:12:00,
2013-02-10 02:27:00,34.5,29.0,30.11,ENE,65,2.0,3.0,79,0.00,,,0.00,0,weatherlink.com 1.10,2013-02-10 09:27:00,
2013-02-10 02:42:00,32.8,29.0,30.11,ENE,65,1.0,1.0,84,0.00,,,0.00,0,weatherlink.com 1.10,2013-02-10 09:42:00,
2013-02-10 02:57:00,31.9,28.0,30.11,ENE,65,1.0,2.0,86,0.00,,,0.00,0,weatherlink.com 1.10,2013-02-10 09:57:00,
2013-02-10 03:12:00,31.7,28.0,30.11,ENE,65,3.0,3.0,87,0.00,,,0.00,0,weatherlink.com 1.10,2013-02-10 10:12:00,
2013-02-10 03:27:00,32.1,28.0,30.11,ENE,65,0.0,2.0,85,0.00,,,0.00,0,weatherlink.com 1.10,2013-02-10 10:27:00,
2013-02-10 03:42:00,31.5,28.0,30.11,ENE,65,0.0,2.0,86,0.00,,,0.00,0,weatherlink.com 1.10,2013-02-10 10:42:00,
2013-02-10 03:57:00,32.1,28.0,30.11,ENE,65,3.0,4.0,85,0.00,,,0.00,0,weatherlink.com 1.10,2013-02-10 10:57:00,
2013-02-10 04:12:00,31.7,28.0,30.11,ENE,65,0.0,2.0,85,0.00,,,0.00,0,weatherlink.com 1.10,2013-02-10 11:12:00,
2013-02-10 04:27:00,30.4,27.0,30.11,ENE,65,0.0,0.0,87,0.00,,,0.00,0,weatherlink.com 1.10,2013-02-10 11:27:00,
2013-02-10 04:42:00,29.9,27.0,30.11,ENE,65,0.0,0.0,88,0.00,,,0.00,0,weatherlink.com 1.10,2013-02-10 11:42:00,
2013-02-10 04:58:00,29.9,27.0,30.11,ENE,65,0.0,0.0,89,0.00,,,0.00,0,weatherlink.com 1.10,2013-02-10 11:58:00,
2013-02-10 05:13:00,29.1,26.0,30.11,ENE,65,0.0,1.0,89,0.00,,,0.00,0,weatherlink.com 1.10,2013-02-10 12:13:00,
2013-02-10 05:27:00,29.9,27.0,30.11,ENE,65,0.0,0.0,90,0.00,,,0.00,0,weatherlink.com 1.10,2013-02-10 12:27:00,
2013-02-10 05:43:00,29.5,27.0,30.11,ENE,65,2.0,2.0,89,0.00,,,0.00,0,weatherlink.com 1.10,2013-02-10 12:43:00,
2013-02-10 05:57:00,29.5,27.0,30.11,ENE,65,2.0,3.0,90,0.00,,,0.00,0,weatherlink.com 1.10,2013-02-10 12:57:00,
2013-02-10 06:12:00,30.1,27.0,30.11,ENE,69,1.0,4.0,88,0.00,,,0.00,0,weatherlink.com 1.10,2013-02-10 13:12:00,
2013-02-10 06:28:00,29.7,26.0,30.11,ENE,69,0.0,0.0,87,0.00,,,0.00,0,weatherlink.com 1.10,2013-02-10 13:28:00,
2013-02-10 06:42:00,28.7,26.0,30.12,ENE,69,0.0,0.0,89,0.00,,,0.00,0,weatherlink.com 1.10,2013-02-10 13:42:00,
2013-02-10 06:57:00,28.2,25.0,30.12,ENE,69,0.0,1.0,89,0.00,,,0.00,0,weatherlink.com 1.10,2013-02-10 13:57:00,
2013-02-10 07:12:00,28.5,26.0,30.12,ENE,69,0.0,1.0,89,0.00,,,0.00,7,weatherlink.com 1.10,2013-02-10 14:12:00,
2013-02-10 07:27:00,28.8,26.0,30.12,ENE,69,0.0,1.0,89,0.00,,,0.00,14,weatherlink.com 1.10,2013-02-10 14:27:00,
2013-02-10 07:42:00,29.5,27.0,30.12,ENE,69,0.0,1.0,90,0.00,,,0.00,56,weatherlink.com 1.10,2013-02-10 14:42:00,
2013-02-10 07:58:00,33.5,29.0,30.13,ENE,69,0.0,2.0,84,0.00,,,0.00,107,weatherlink.com 1.10,2013-02-10 14:58:00,
2013-02-10 08:13:00,34.7,29.0,30.13,ENE,69,1.0,1.0,80,0.00,,,0.00,165,weatherlink.com 1.10,2013-02-10 15:13:00,
2013-02-10 08:28:00,36.2,30.0,30.13,ENE,78,0.0,1.0,78,0.00,,,0.00,220,weatherlink.com 1.10,2013-02-10 15:28:00,
2013-02-10 08:43:00,38.9,29.0,30.13,ESE,107,1.0,3.0,69,0.00,,,0.00,246,weatherlink.com 1.10,2013-02-10 15:43:00,
2013-02-10 08:58:00,40.4,29.0,30.13,SE,139,2.0,3.0,63,0.00,,,0.00,316,weatherlink.com 1.10,2013-02-10 15:58:00,
2013-02-10 09:13:00,42.2,29.0,30.13,SE,142,1.0,3.0,60,0.00,,,0.00,364,weatherlink.com 1.10,2013-02-10 16:13:00,
2013-02-10 09:28:00,43.6,29.0,30.13,SE,128,1.0,2.0,57,0.00,,,0.00,411,weatherlink.com 1.10,2013-02-10 16:28:00,
2013-02-10 09:43:00,47.6,29.0,30.13,SSE,147,0.0,3.0,48,0.00,,,0.00,457,weatherlink.com 1.10,2013-02-10 16:43:00,
2013-02-10 09:58:00,49.1,28.0,30.13,SSW,198,0.0,4.0,45,0.00,,,0.00,499,weatherlink.com 1.10,2013-02-10 16:58:00,
2013-02-10 10:14:00,51.9,29.0,30.12,NW,313,0.0,3.0,42,0.00,,,0.00,540,weatherlink.com 1.10,2013-02-10 17:14:00,
2013-02-10 10:29:00,52.6,30.0,30.12,WSW,258,0.0,5.0,42,0.00,,,0.00,577,weatherlink.com 1.10,2013-02-10 17:29:00,
2013-02-10 10:43:00,52.1,26.0,30.12,SW,222,1.0,4.0,36,0.00,,,0.00,610,weatherlink.com 1.10,2013-02-10 17:43:00,
2013-02-10 10:58:00,50.4,25.0,30.12,ESE,105,2.0,5.0,37,0.00,,,0.00,642,weatherlink.com 1.10,2013-02-10 17:58:00,
2013-02-10 11:13:00,54.1,26.0,30.11,NW,314,5.0,7.0,34,0.00,,,0.00,668,weatherlink.com 1.10,2013-02-10 18:13:00,
2013-02-10 11:29:00,55.6,26.0,30.11,West,273,1.0,6.0,32,0.00,,,0.00,689,weatherlink.com 1.10,2013-02-10 18:29:00,
2013-02-10 11:44:00,53.6,23.0,30.11,ESE,106,0.0,5.0,30,0.00,,,0.00,710,weatherlink.com 1.10,2013-02-10 18:44:00,
2013-02-10 11:59:00,54.6,25.0,30.10,WSW,250,4.0,7.0,32,0.00,,,0.00,722,weatherlink.com 1.10,2013-02-10 18:59:00,
2013-02-10 12:14:00,53.5,23.0,30.09,NE,50,5.0,7.0,30,0.00,,,0.00,731,weatherlink.com 1.10,2013-02-10 19:14:00,
2013-02-10 12:29:00,54.8,24.0,30.08,WNW,300,5.0,7.0,30,0.00,,,0.00,738,weatherlink.com 1.10,2013-02-10 19:29:00,
2013-02-10 12:44:00,55.0,23.0,30.07,NW,321,1.0,7.0,29,0.00,,,0.00,740,weatherlink.com 1.10,2013-02-10 19:44:00,
2013-02-10 12:59:00,56.2,24.0,30.07,SSE,155,5.0,7.0,29,0.00,,,0.00,737,weatherlink.com 1.10,2013-02-10 19:59:00,
2013-02-10 13:14:00,57.0,20.0,30.06,SSW,208,3.0,9.0,24,0.00,,,0.00,731,weatherlink.com 1.10,2013-02-10 20:14:00,
2013-02-10 13:29:00,56.6,20.0,30.05,SSW,213,7.0,9.0,24,0.00,,,0.00,721,weatherlink.com 1.10,2013-02-10 20:29:00,
2013-02-10 13:44:00,57.5,21.0,30.04,WSW,244,8.0,11.0,24,0.00,,,0.00,705,weatherlink.com 1.10,2013-02-10 20:44:00,
2013-02-10 13:59:00,56.4,19.0,30.04,SE,134,1.0,9.0,23,0.00,,,0.00,684,weatherlink.com 1.10,2013-02-10 20:59:00,
2013-02-10 14:14:00,56.4,21.0,30.04,West,264,2.0,8.0,25,0.00,,,0.00,663,weatherlink.com 1.10,2013-02-10 21:14:00,
2013-02-10 14:29:00,56.6,21.0,30.03,WSW,240,5.0,8.0,25,0.00,,,0.00,635,weatherlink.com 1.10,2013-02-10 21:29:00,
2013-02-10 14:44:00,57.1,20.0,30.03,SSW,213,2.0,13.0,24,0.00,,,0.00,605,weatherlink.com 1.10,2013-02-10 21:44:00,
2013-02-10 14:59:00,56.9,21.0,30.03,South,190,5.0,9.0,25,0.00,,,0.00,566,weatherlink.com 1.10,2013-02-10 21:59:00,
2013-02-10 15:14:00,57.0,20.0,30.03,West,261,5.0,8.0,24,0.00,,,0.00,529,weatherlink.com 1.10,2013-02-10 22:14:00,
2013-02-10 15:29:00,57.3,22.0,30.02,WSW,248,4.0,12.0,25,0.00,,,0.00,485,weatherlink.com 1.10,2013-02-10 22:29:00,
2013-02-10 15:44:00,56.4,23.0,30.02,WNW,295,7.0,12.0,27,0.00,,,0.00,443,weatherlink.com 1.10,2013-02-10 22:44:00,
2013-02-10 15:59:00,56.5,22.0,30.02,WNW,296,2.0,9.0,26,0.00,,,0.00,396,weatherlink.com 1.10,2013-02-10 22:59:00,
2013-02-10 16:14:00,56.3,23.0,30.02,SW,222,2.0,6.0,27,0.00,,,0.00,346,weatherlink.com 1.10,2013-02-10 23:14:00,
2013-02-10 16:29:00,56.3,24.0,30.02,WNW,286,8.0,8.0,29,0.00,,,0.00,297,weatherlink.com 1.10,2013-02-10 23:29:00,
2013-02-10 16:44:00,56.3,23.0,30.01,SW,229,5.0,10.0,28,0.00,,,0.00,239,weatherlink.com 1.10,2013-02-10 23:44:00,
2013-02-10 16:59:00,55.8,22.0,30.01,NW,310,5.0,8.0,27,0.00,,,0.00,178,weatherlink.com 1.10,2013-02-10 23:59:00,
2013-02-10 17:14:00,55.3,22.0,30.01,WNW,300,1.0,7.0,27,0.00,,,0.00,113,weatherlink.com 1.10,2013-02-11 00:14:00,
2013-02-10 17:29:00,54.9,22.0,30.01,WNW,282,4.0,9.0,28,0.00,,,0.00,62,weatherlink.com 1.10,2013-02-11 00:29:00,
2013-02-10 17:45:00,54.0,22.0,30.01,West,268,5.0,7.0,29,0.00,,,0.00,19,weatherlink.com 1.10,2013-02-11 00:45:00,
2013-02-10 17:59:00,53.3,23.0,30.02,West,276,5.0,9.0,31,0.00,,,0.00,9,weatherlink.com 1.10,2013-02-11 00:59:00,
2013-02-10 18:14:00,52.5,23.0,30.02,WNW,284,3.0,7.0,32,0.00,,,0.00,0,weatherlink.com 1.10,2013-02-11 01:14:00,
2013-02-10 18:30:00,51.2,24.0,30.02,WNW,300,3.0,6.0,35,0.00,,,0.00,0,weatherlink.com 1.10,2013-02-11 01:30:00,
2013-02-10 18:44:00,50.5,24.0,30.03,West,280,1.0,4.0,36,0.00,,,0.00,0,weatherlink.com 1.10,2013-02-11 01:44:00,
2013-02-10 18:59:00,49.4,26.0,30.03,WNW,284,0.0,3.0,40,0.00,,,0.00,0,weatherlink.com 1.10,2013-02-11 01:59:00,
2013-02-10 19:14:00,48.2,26.0,30.03,WNW,284,0.0,2.0,43,0.00,,,0.00,0,weatherlink.com 1.10,2013-02-11 02:14:00,
2013-02-10 19:29:00,47.1,27.0,30.04,WNW,284,0.0,1.0,46,0.00,,,0.00,0,weatherlink.com 1.10,2013-02-11 02:29:00,
2013-02-10 19:45:00,46.3,26.0,30.04,WNW,284,0.0,2.0,45,0.00,,,0.00,0,weatherlink.com 1.10,2013-02-11 02:45:00,
2013-02-10 19:59:00,44.8,27.0,30.05,WNW,284,0.0,0.0,51,0.00,,,0.00,0,weatherlink.com 1.10,2013-02-11 02:59:00,
2013-02-10 20:19:00,44.1,27.0,30.05,WNW,284,0.0,1.0,52,0.00,,,0.00,0,weatherlink.com 1.10,2013-02-11 03:19:00,
2013-02-10 20:29:00,44.2,27.0,30.05,WNW,284,0.0,0.0,51,0.00,,,0.00,0,weatherlink.com 1.10,2013-02-11 03:29:00,
2013-02-10 20:44:00,43.8,27.0,30.05,WNW,284,0.0,0.0,53,0.00,,,0.00,0,weatherlink.com 1.10,2013-02-11 03:44:00,
2013-02-10 20:59:00,41.7,28.0,30.06,WNW,284,1.0,2.0,58,0.00,,,0.00,0,weatherlink.com 1.10,2013-02-11 03:59:00,
2013-02-10 21:15:00,41.0,27.0,30.06,ENE,61,1.0,3.0,58,0.00,,,0.00,0,weatherlink.com 1.10,2013-02-11 04:15:00,
2013-02-10 21:29:00,41.1,27.0,30.07,ENE,61,1.0,4.0,57,0.00,,,0.00,0,weatherlink.com 1.10,2013-02-11 04:29:00,
2013-02-10 21:44:00,41.1,28.0,30.07,ENE,61,0.0,3.0,59,0.00,,,0.00,0,weatherlink.com 1.10,2013-02-11 04:44:00,
2013-02-10 22:00:00,39.5,28.0,30.07,ENE,61,1.0,2.0,63,0.00,,,0.00,0,weatherlink.com 1.10,2013-02-11 05:00:00,
2013-02-10 22:14:00,40.4,27.0,30.07,ENE,61,1.0,2.0,60,0.00,,,0.00,0,weatherlink.com 1.10,2013-02-11 05:14:00,
2013-02-10 22:30:00,39.8,27.0,30.07,ENE,68,2.0,4.0,61,0.00,,,0.00,0,weatherlink.com 1.10,2013-02-11 05:30:00,
2013-02-10 22:45:00,38.4,27.0,30.07,ENE,69,2.0,4.0,65,0.00,,,0.00,0,weatherlink.com 1.10,2013-02-11 05:45:00,
2013-02-10 22:59:00,38.4,27.0,30.07,ENE,63,0.0,4.0,64,0.00,,,0.00,0,weatherlink.com 1.10,2013-02-11 05:59:00,
2013-02-10 23:14:00,38.1,27.0,30.07,ENE,64,0.0,2.0,65,0.00,,,0.00,0,weatherlink.com 1.10,2013-02-11 06:14:00,
2013-02-10 23:30:00,37.3,27.0,30.07,ENE,64,1.0,2.0,67,0.00,,,0.00,0,weatherlink.com 1.10,2013-02-11 06:30:00,
2013-02-10 23:45:00,36.7,28.0,30.07,ENE,64,1.0,1.0,70,0.00,,,0.00,0,weatherlink.com 1.10,2013-02-11 06:45:00,